sensor_id;sensor_type;location;lat;lon;timestamp;P1;durP1;ratioP1;P2;durP2;ratioP2
8540;SDS011;4308;51.294;6.590;2022-10-12T00:01:03;16.80;;;10.37;;
8540;SDS011;4308;51.294;6.590;2022-10-12T00:03:31;17.43;;;10.63;;
8540;SDS011;4308;51.294;6.590;2022-10-12T00:06:06;15.70;;;10.83;;
8540;SDS011;4308;51.294;6.590;2022-10-12T00:08:34;19.53;;;11.57;;
8540;SDS011;4308;51.294;6.590;2022-10-12T00:11:02;16.83;;;10.23;;
8540;SDS011;4308;51.294;6.590;2022-10-12T00:13:30;12.47;;;10.07;;
8540;SDS011;4308;51.294;6.590;2022-10-12T00:16:05;17.37;;;10.47;;
8540;SDS011;4308;51.294;6.590;2022-10-12T00:18:33;16.10;;;11.10;;
8540;SDS011;4308;51.294;6.590;2022-10-12T00:21:05;18.23;;;11.47;;
8540;SDS011;4308;51.294;6.590;2022-10-12T00:23:33;16.10;;;11.03;;
8540;SDS011;4308;51.294;6.590;2022-10-12T00:26:02;19.17;;;11.80;;
8540;SDS011;4308;51.294;6.590;2022-10-12T00:28:30;16.73;;;11.40;;
8540;SDS011;4308;51.294;6.590;2022-10-12T00:30:58;19.83;;;11.73;;
8540;SDS011;4308;51.294;6.590;2022-10-12T00:33:27;17.77;;;11.40;;
8540;SDS011;4308;51.294;6.590;2022-10-12T00:35:54;17.40;;;11.70;;
8540;SDS011;4308;51.294;6.590;2022-10-12T00:38:22;20.67;;;10.83;;
8540;SDS011;4308;51.294;6.590;2022-10-12T00:40:49;19.23;;;11.70;;
8540;SDS011;4308;51.294;6.590;2022-10-12T00:43:27;17.23;;;10.27;;
8540;SDS011;4308;51.294;6.590;2022-10-12T00:45:56;16.00;;;10.87;;
8540;SDS011;4308;51.294;6.590;2022-10-12T00:48:23;15.10;;;9.83;;
8540;SDS011;4308;51.294;6.590;2022-10-12T00:50:52;16.63;;;10.67;;
8540;SDS011;4308;51.294;6.590;2022-10-12T00:53:22;18.03;;;11.13;;
8540;SDS011;4308;51.294;6.590;2022-10-12T00:55:53;19.37;;;11.13;;
8540;SDS011;4308;51.294;6.590;2022-10-12T00:58:22;21.27;;;9.93;;
8540;SDS011;4308;51.294;6.590;2022-10-12T01:00:50;14.53;;;9.93;;
8540;SDS011;4308;51.294;6.590;2022-10-12T01:03:19;17.13;;;10.77;;
8540;SDS011;4308;51.294;6.590;2022-10-12T01:05:47;17.70;;;9.97;;
8540;SDS011;4308;51.294;6.590;2022-10-12T01:08:15;20.70;;;9.90;;
8540;SDS011;4308;51.294;6.590;2022-10-12T01:10:42;17.27;;;9.20;;
8540;SDS011;4308;51.294;6.590;2022-10-12T01:13:09;12.23;;;9.23;;
8540;SDS011;4308;51.294;6.590;2022-10-12T01:15:38;16.33;;;9.87;;
8540;SDS011;4308;51.294;6.590;2022-10-12T01:18:09;16.73;;;9.50;;
8540;SDS011;4308;51.294;6.590;2022-10-12T01:28:45;16.27;;;10.10;;
8540;SDS011;4308;51.294;6.590;2022-10-12T01:31:27;18.67;;;9.20;;
8540;SDS011;4308;51.294;6.590;2022-10-12T01:34:06;15.23;;;8.90;;
8540;SDS011;4308;51.294;6.590;2022-10-12T01:37:40;15.07;;;8.93;;
8540;SDS011;4308;51.294;6.590;2022-10-12T01:39:35;12.07;;;8.00;;
8540;SDS011;4308;51.294;6.590;2022-10-12T01:42:05;14.20;;;8.43;;
8540;SDS011;4308;51.294;6.590;2022-10-12T01:44:34;17.47;;;8.17;;
8540;SDS011;4308;51.294;6.590;2022-10-12T01:47:08;15.20;;;8.37;;
8540;SDS011;4308;51.294;6.590;2022-10-12T01:49:35;18.93;;;9.33;;
8540;SDS011;4308;51.294;6.590;2022-10-12T01:54:55;15.40;;;9.03;;
8540;SDS011;4308;51.294;6.590;2022-10-12T01:57:33;13.93;;;8.67;;
8540;SDS011;4308;51.294;6.590;2022-10-12T02:00:05;11.47;;;7.60;;
8540;SDS011;4308;51.294;6.590;2022-10-12T02:05:47;13.57;;;8.30;;
8540;SDS011;4308;51.294;6.590;2022-10-12T02:07:56;13.47;;;8.00;;
8540;SDS011;4308;51.294;6.590;2022-10-12T02:10:27;9.93;;;6.63;;
8540;SDS011;4308;51.294;6.590;2022-10-12T02:12:56;12.30;;;8.07;;
8540;SDS011;4308;51.294;6.590;2022-10-12T02:15:24;11.27;;;7.50;;
8540;SDS011;4308;51.294;6.590;2022-10-12T02:17:53;12.63;;;7.80;;
8540;SDS011;4308;51.294;6.590;2022-10-12T02:20:21;11.20;;;7.37;;
8540;SDS011;4308;51.294;6.590;2022-10-12T02:22:49;11.90;;;7.63;;
8540;SDS011;4308;51.294;6.590;2022-10-12T02:25:19;12.10;;;7.37;;
8540;SDS011;4308;51.294;6.590;2022-10-12T02:27:58;14.27;;;7.33;;
8540;SDS011;4308;51.294;6.590;2022-10-12T02:30:30;9.10;;;7.43;;
8540;SDS011;4308;51.294;6.590;2022-10-12T02:36:33;10.47;;;7.50;;
8540;SDS011;4308;51.294;6.590;2022-10-12T02:38:37;14.53;;;7.40;;
8540;SDS011;4308;51.294;6.590;2022-10-12T02:41:09;14.03;;;8.47;;
8540;SDS011;4308;51.294;6.590;2022-10-12T02:43:49;11.37;;;7.77;;
8540;SDS011;4308;51.294;6.590;2022-10-12T02:46:18;10.93;;;6.63;;
8540;SDS011;4308;51.294;6.590;2022-10-12T02:48:48;11.97;;;7.57;;
8540;SDS011;4308;51.294;6.590;2022-10-12T02:51:16;12.73;;;7.73;;
8540;SDS011;4308;51.294;6.590;2022-10-12T02:53:46;9.77;;;7.13;;
8540;SDS011;4308;51.294;6.590;2022-10-12T02:56:14;13.13;;;8.30;;
8540;SDS011;4308;51.294;6.590;2022-10-12T02:58:42;11.63;;;7.37;;
8540;SDS011;4308;51.294;6.590;2022-10-12T03:01:10;15.67;;;8.60;;
8540;SDS011;4308;51.294;6.590;2022-10-12T03:03:38;14.90;;;10.13;;
8540;SDS011;4308;51.294;6.590;2022-10-12T03:06:06;18.23;;;10.40;;
8540;SDS011;4308;51.294;6.590;2022-10-12T03:08:34;13.50;;;9.03;;
8540;SDS011;4308;51.294;6.590;2022-10-12T03:11:02;16.37;;;9.67;;
8540;SDS011;4308;51.294;6.590;2022-10-12T03:13:30;18.50;;;11.67;;
8540;SDS011;4308;51.294;6.590;2022-10-12T03:16:01;22.93;;;13.03;;
8540;SDS011;4308;51.294;6.590;2022-10-12T03:18:29;22.37;;;13.77;;
8540;SDS011;4308;51.294;6.590;2022-10-12T03:20:57;17.83;;;11.23;;
8540;SDS011;4308;51.294;6.590;2022-10-12T03:23:25;17.93;;;11.10;;
8540;SDS011;4308;51.294;6.590;2022-10-12T03:25:52;18.47;;;11.47;;
8540;SDS011;4308;51.294;6.590;2022-10-12T03:28:20;15.77;;;10.70;;
8540;SDS011;4308;51.294;6.590;2022-10-12T03:30:47;15.87;;;9.57;;
8540;SDS011;4308;51.294;6.590;2022-10-12T03:33:15;20.20;;;12.07;;
8540;SDS011;4308;51.294;6.590;2022-10-12T03:35:43;14.87;;;11.63;;
8540;SDS011;4308;51.294;6.590;2022-10-12T03:38:11;16.57;;;11.07;;
8540;SDS011;4308;51.294;6.590;2022-10-12T03:40:39;18.33;;;10.80;;
8540;SDS011;4308;51.294;6.590;2022-10-12T03:43:06;17.17;;;10.87;;
8540;SDS011;4308;51.294;6.590;2022-10-12T03:45:34;20.87;;;11.40;;
8540;SDS011;4308;51.294;6.590;2022-10-12T03:48:02;16.20;;;11.10;;
8540;SDS011;4308;51.294;6.590;2022-10-12T03:50:31;20.33;;;11.50;;
8540;SDS011;4308;51.294;6.590;2022-10-12T03:52:58;18.07;;;11.30;;
8540;SDS011;4308;51.294;6.590;2022-10-12T03:55:26;15.80;;;9.90;;
8540;SDS011;4308;51.294;6.590;2022-10-12T03:57:54;16.13;;;10.87;;
8540;SDS011;4308;51.294;6.590;2022-10-12T04:00:21;20.00;;;10.73;;
8540;SDS011;4308;51.294;6.590;2022-10-12T04:02:49;15.33;;;10.03;;
8540;SDS011;4308;51.294;6.590;2022-10-12T04:05:16;16.73;;;9.30;;
8540;SDS011;4308;51.294;6.590;2022-10-12T04:07:44;13.63;;;8.63;;
8540;SDS011;4308;51.294;6.590;2022-10-12T04:10:11;14.83;;;9.10;;
8540;SDS011;4308;51.294;6.590;2022-10-12T04:12:39;15.10;;;7.43;;
8540;SDS011;4308;51.294;6.590;2022-10-12T04:15:06;13.27;;;7.87;;
8540;SDS011;4308;51.294;6.590;2022-10-12T04:17:34;16.53;;;7.73;;
8540;SDS011;4308;51.294;6.590;2022-10-12T04:20:02;14.67;;;7.47;;
8540;SDS011;4308;51.294;6.590;2022-10-12T04:22:33;11.67;;;7.03;;
8540;SDS011;4308;51.294;6.590;2022-10-12T04:25:01;11.47;;;6.43;;
8540;SDS011;4308;51.294;6.590;2022-10-12T04:27:28;16.50;;;6.70;;
8540;SDS011;4308;51.294;6.590;2022-10-12T04:29:56;9.33;;;6.00;;
8540;SDS011;4308;51.294;6.590;2022-10-12T04:32:23;10.17;;;6.23;;
8540;SDS011;4308;51.294;6.590;2022-10-12T04:34:51;10.17;;;5.47;;
8540;SDS011;4308;51.294;6.590;2022-10-12T04:37:18;11.00;;;6.10;;
8540;SDS011;4308;51.294;6.590;2022-10-12T04:39:46;10.97;;;5.97;;
8540;SDS011;4308;51.294;6.590;2022-10-12T04:42:13;13.47;;;6.40;;
8540;SDS011;4308;51.294;6.590;2022-10-12T04:44:41;11.03;;;5.97;;
8540;SDS011;4308;51.294;6.590;2022-10-12T04:47:09;9.77;;;5.63;;
8540;SDS011;4308;51.294;6.590;2022-10-12T04:49:36;10.77;;;6.23;;
8540;SDS011;4308;51.294;6.590;2022-10-12T04:52:04;14.10;;;5.97;;
8540;SDS011;4308;51.294;6.590;2022-10-12T04:54:31;11.47;;;5.57;;
8540;SDS011;4308;51.294;6.590;2022-10-12T04:56:59;11.60;;;6.00;;
8540;SDS011;4308;51.294;6.590;2022-10-12T04:59:26;12.17;;;6.60;;
8540;SDS011;4308;51.294;6.590;2022-10-12T05:01:54;11.17;;;6.10;;
8540;SDS011;4308;51.294;6.590;2022-10-12T05:04:21;13.17;;;6.10;;
8540;SDS011;4308;51.294;6.590;2022-10-12T05:06:49;13.10;;;5.70;;
8540;SDS011;4308;51.294;6.590;2022-10-12T05:09:16;13.33;;;5.73;;
8540;SDS011;4308;51.294;6.590;2022-10-12T05:11:44;9.60;;;5.87;;
8540;SDS011;4308;51.294;6.590;2022-10-12T05:14:12;12.63;;;5.93;;
8540;SDS011;4308;51.294;6.590;2022-10-12T05:16:39;16.43;;;6.10;;
8540;SDS011;4308;51.294;6.590;2022-10-12T05:19:07;9.07;;;6.23;;
8540;SDS011;4308;51.294;6.590;2022-10-12T05:21:34;11.23;;;6.13;;
8540;SDS011;4308;51.294;6.590;2022-10-12T05:24:02;13.87;;;6.73;;
8540;SDS011;4308;51.294;6.590;2022-10-12T05:26:29;19.37;;;6.50;;
8540;SDS011;4308;51.294;6.590;2022-10-12T05:28:57;13.53;;;6.33;;
8540;SDS011;4308;51.294;6.590;2022-10-12T05:31:24;13.50;;;5.97;;
8540;SDS011;4308;51.294;6.590;2022-10-12T05:33:52;13.37;;;6.27;;
8540;SDS011;4308;51.294;6.590;2022-10-12T05:36:19;13.33;;;5.67;;
8540;SDS011;4308;51.294;6.590;2022-10-12T05:38:47;10.23;;;6.03;;
8540;SDS011;4308;51.294;6.590;2022-10-12T05:41:14;12.80;;;6.77;;
8540;SDS011;4308;51.294;6.590;2022-10-12T05:43:42;11.57;;;6.00;;
8540;SDS011;4308;51.294;6.590;2022-10-12T05:46:09;15.03;;;6.60;;
8540;SDS011;4308;51.294;6.590;2022-10-12T05:48:40;13.30;;;5.63;;
8540;SDS011;4308;51.294;6.590;2022-10-12T05:51:07;14.10;;;6.57;;
8540;SDS011;4308;51.294;6.590;2022-10-12T05:53:35;10.67;;;5.93;;
8540;SDS011;4308;51.294;6.590;2022-10-12T05:56:02;13.23;;;6.17;;
8540;SDS011;4308;51.294;6.590;2022-10-12T05:58:30;14.17;;;6.07;;
8540;SDS011;4308;51.294;6.590;2022-10-12T06:01:04;9.40;;;5.97;;
8540;SDS011;4308;51.294;6.590;2022-10-12T06:03:32;10.37;;;5.97;;
8540;SDS011;4308;51.294;6.590;2022-10-12T06:06:01;12.83;;;6.50;;
8540;SDS011;4308;51.294;6.590;2022-10-12T06:08:29;13.83;;;6.53;;
8540;SDS011;4308;51.294;6.590;2022-10-12T06:10:56;13.70;;;6.13;;
8540;SDS011;4308;51.294;6.590;2022-10-12T06:13:24;10.60;;;6.37;;
8540;SDS011;4308;51.294;6.590;2022-10-12T06:15:51;13.13;;;6.90;;
8540;SDS011;4308;51.294;6.590;2022-10-12T06:18:19;13.20;;;7.00;;
8540;SDS011;4308;51.294;6.590;2022-10-12T06:20:47;14.70;;;7.50;;
8540;SDS011;4308;51.294;6.590;2022-10-12T06:23:15;12.40;;;5.97;;
8540;SDS011;4308;51.294;6.590;2022-10-12T06:25:44;12.97;;;6.97;;
8540;SDS011;4308;51.294;6.590;2022-10-12T06:28:14;15.17;;;7.00;;
8540;SDS011;4308;51.294;6.590;2022-10-12T06:30:43;13.67;;;7.47;;
8540;SDS011;4308;51.294;6.590;2022-10-12T06:33:12;14.23;;;7.70;;
8540;SDS011;4308;51.294;6.590;2022-10-12T06:35:40;13.77;;;7.93;;
8540;SDS011;4308;51.294;6.590;2022-10-12T06:38:07;19.23;;;6.83;;
8540;SDS011;4308;51.294;6.590;2022-10-12T06:40:34;9.73;;;5.93;;
8540;SDS011;4308;51.294;6.590;2022-10-12T06:43:02;13.80;;;6.53;;
8540;SDS011;4308;51.294;6.590;2022-10-12T06:45:30;11.90;;;6.60;;
8540;SDS011;4308;51.294;6.590;2022-10-12T06:47:57;13.57;;;6.40;;
8540;SDS011;4308;51.294;6.590;2022-10-12T06:50:28;13.00;;;5.70;;
8540;SDS011;4308;51.294;6.590;2022-10-12T06:52:58;18.43;;;6.80;;
8540;SDS011;4308;51.294;6.590;2022-10-12T06:55:26;26.63;;;7.97;;
8540;SDS011;4308;51.294;6.590;2022-10-12T06:57:55;13.30;;;6.67;;
8540;SDS011;4308;51.294;6.590;2022-10-12T07:00:23;13.57;;;6.77;;
8540;SDS011;4308;51.294;6.590;2022-10-12T07:02:51;17.53;;;8.17;;
8540;SDS011;4308;51.294;6.590;2022-10-12T07:05:19;38.50;;;14.53;;
8540;SDS011;4308;51.294;6.590;2022-10-12T07:07:46;29.53;;;12.50;;
8540;SDS011;4308;51.294;6.590;2022-10-12T07:10:14;17.87;;;13.37;;
8540;SDS011;4308;51.294;6.590;2022-10-12T07:12:41;24.60;;;18.83;;
8540;SDS011;4308;51.294;6.590;2022-10-12T07:15:09;27.13;;;20.47;;
8540;SDS011;4308;51.294;6.590;2022-10-12T07:17:36;29.87;;;21.07;;
8540;SDS011;4308;51.294;6.590;2022-10-12T07:20:04;29.70;;;21.60;;
8540;SDS011;4308;51.294;6.590;2022-10-12T07:22:32;32.80;;;20.83;;
8540;SDS011;4308;51.294;6.590;2022-10-12T07:24:59;19.70;;;15.33;;
8540;SDS011;4308;51.294;6.590;2022-10-12T07:27:27;21.50;;;16.10;;
8540;SDS011;4308;51.294;6.590;2022-10-12T07:29:55;20.03;;;14.50;;
8540;SDS011;4308;51.294;6.590;2022-10-12T07:32:23;23.63;;;13.77;;
8540;SDS011;4308;51.294;6.590;2022-10-12T07:34:51;22.53;;;11.60;;
8540;SDS011;4308;51.294;6.590;2022-10-12T07:37:19;15.70;;;9.63;;
8540;SDS011;4308;51.294;6.590;2022-10-12T07:39:46;17.33;;;9.43;;
8540;SDS011;4308;51.294;6.590;2022-10-12T07:42:14;17.67;;;9.70;;
8540;SDS011;4308;51.294;6.590;2022-10-12T07:44:45;15.67;;;9.07;;
8540;SDS011;4308;51.294;6.590;2022-10-12T07:47:12;15.87;;;8.03;;
8540;SDS011;4308;51.294;6.590;2022-10-12T07:49:40;15.33;;;8.13;;
8540;SDS011;4308;51.294;6.590;2022-10-12T07:52:07;14.63;;;7.40;;
8540;SDS011;4308;51.294;6.590;2022-10-12T07:54:35;16.30;;;7.30;;
8540;SDS011;4308;51.294;6.590;2022-10-12T07:57:02;14.97;;;8.10;;
8540;SDS011;4308;51.294;6.590;2022-10-12T07:59:32;14.27;;;7.00;;
8540;SDS011;4308;51.294;6.590;2022-10-12T08:02:00;18.73;;;7.20;;
8540;SDS011;4308;51.294;6.590;2022-10-12T08:04:28;16.43;;;7.60;;
8540;SDS011;4308;51.294;6.590;2022-10-12T08:06:57;24.60;;;8.90;;
8540;SDS011;4308;51.294;6.590;2022-10-12T08:09:31;14.07;;;7.53;;
8540;SDS011;4308;51.294;6.590;2022-10-12T08:12:01;15.93;;;7.77;;
8540;SDS011;4308;51.294;6.590;2022-10-12T08:14:29;13.87;;;8.47;;
8540;SDS011;4308;51.294;6.590;2022-10-12T08:17:05;13.73;;;8.60;;
8540;SDS011;4308;51.294;6.590;2022-10-12T08:19:43;17.03;;;8.23;;
8540;SDS011;4308;51.294;6.590;2022-10-12T08:22:11;17.73;;;8.63;;
8540;SDS011;4308;51.294;6.590;2022-10-12T08:24:39;13.00;;;7.20;;
8540;SDS011;4308;51.294;6.590;2022-10-12T08:27:06;13.97;;;7.83;;
8540;SDS011;4308;51.294;6.590;2022-10-12T08:29:34;18.50;;;8.57;;
8540;SDS011;4308;51.294;6.590;2022-10-12T08:32:15;15.47;;;7.70;;
8540;SDS011;4308;51.294;6.590;2022-10-12T08:34:52;13.77;;;7.37;;
8540;SDS011;4308;51.294;6.590;2022-10-12T08:37:20;15.10;;;7.53;;
8540;SDS011;4308;51.294;6.590;2022-10-12T08:39:48;17.93;;;7.50;;
8540;SDS011;4308;51.294;6.590;2022-10-12T08:47:23;13.83;;;6.70;;
8540;SDS011;4308;51.294;6.590;2022-10-12T08:49:52;11.23;;;7.30;;
8540;SDS011;4308;51.294;6.590;2022-10-12T08:52:25;17.43;;;7.00;;
8540;SDS011;4308;51.294;6.590;2022-10-12T08:54:53;17.83;;;7.13;;
8540;SDS011;4308;51.294;6.590;2022-10-12T08:57:22;16.10;;;7.27;;
8540;SDS011;4308;51.294;6.590;2022-10-12T08:59:49;16.20;;;6.07;;
8540;SDS011;4308;51.294;6.590;2022-10-12T09:02:33;13.23;;;6.00;;
8540;SDS011;4308;51.294;6.590;2022-10-12T09:05:07;15.50;;;6.50;;
8540;SDS011;4308;51.294;6.590;2022-10-12T09:07:39;15.30;;;6.60;;
8540;SDS011;4308;51.294;6.590;2022-10-12T09:17:55;14.67;;;4.70;;
8540;SDS011;4308;51.294;6.590;2022-10-12T09:20:33;11.43;;;5.20;;
8540;SDS011;4308;51.294;6.590;2022-10-12T09:23:22;10.90;;;5.63;;
8540;SDS011;4308;51.294;6.590;2022-10-12T09:25:50;13.83;;;5.40;;
8540;SDS011;4308;51.294;6.590;2022-10-12T09:28:24;10.30;;;5.47;;
8540;SDS011;4308;51.294;6.590;2022-10-12T09:31:00;13.53;;;5.73;;
8540;SDS011;4308;51.294;6.590;2022-10-12T09:33:31;8.40;;;5.03;;
8540;SDS011;4308;51.294;6.590;2022-10-12T09:36:02;13.10;;;5.00;;
8540;SDS011;4308;51.294;6.590;2022-10-12T09:38:30;11.47;;;5.37;;
8540;SDS011;4308;51.294;6.590;2022-10-12T09:40:57;10.23;;;5.40;;
8540;SDS011;4308;51.294;6.590;2022-10-12T09:43:25;8.70;;;5.53;;
8540;SDS011;4308;51.294;6.590;2022-10-12T09:45:52;12.77;;;4.83;;
8540;SDS011;4308;51.294;6.590;2022-10-12T09:48:21;8.67;;;4.70;;
8540;SDS011;4308;51.294;6.590;2022-10-12T09:53:27;9.43;;;5.43;;
8540;SDS011;4308;51.294;6.590;2022-10-12T09:55:56;9.67;;;4.87;;
8540;SDS011;4308;51.294;6.590;2022-10-12T09:58:24;9.60;;;5.53;;
8540;SDS011;4308;51.294;6.590;2022-10-12T10:03:38;11.30;;;4.57;;
8540;SDS011;4308;51.294;6.590;2022-10-12T10:06:06;8.67;;;4.93;;
8540;SDS011;4308;51.294;6.590;2022-10-12T10:08:41;6.27;;;4.10;;
8540;SDS011;4308;51.294;6.590;2022-10-12T10:11:13;11.40;;;4.87;;
8540;SDS011;4308;51.294;6.590;2022-10-12T10:13:51;11.90;;;5.07;;
8540;SDS011;4308;51.294;6.590;2022-10-12T10:16:22;10.90;;;4.97;;
8540;SDS011;4308;51.294;6.590;2022-10-12T10:18:55;11.13;;;5.07;;
8540;SDS011;4308;51.294;6.590;2022-10-12T10:21:33;15.50;;;5.33;;
8540;SDS011;4308;51.294;6.590;2022-10-12T10:24:02;11.20;;;5.00;;
8540;SDS011;4308;51.294;6.590;2022-10-12T10:34:41;9.80;;;5.80;;
8540;SDS011;4308;51.294;6.590;2022-10-12T10:37:16;11.93;;;5.80;;
8540;SDS011;4308;51.294;6.590;2022-10-12T10:39:49;12.00;;;5.60;;
8540;SDS011;4308;51.294;6.590;2022-10-12T10:42:18;10.87;;;5.30;;
8540;SDS011;4308;51.294;6.590;2022-10-12T10:44:50;12.93;;;5.30;;
8540;SDS011;4308;51.294;6.590;2022-10-12T10:47:18;11.83;;;5.43;;
8540;SDS011;4308;51.294;6.590;2022-10-12T10:49:48;12.57;;;4.83;;
8540;SDS011;4308;51.294;6.590;2022-10-12T10:52:18;13.13;;;5.43;;
8540;SDS011;4308;51.294;6.590;2022-10-12T10:54:47;14.87;;;6.03;;
8540;SDS011;4308;51.294;6.590;2022-10-12T10:57:21;11.63;;;5.73;;
8540;SDS011;4308;51.294;6.590;2022-10-12T10:59:56;12.50;;;5.53;;
8540;SDS011;4308;51.294;6.590;2022-10-12T11:08:02;15.67;;;6.27;;
8540;SDS011;4308;51.294;6.590;2022-10-12T11:10:32;12.23;;;7.10;;
8540;SDS011;4308;51.294;6.590;2022-10-12T11:13:04;11.50;;;5.70;;
8540;SDS011;4308;51.294;6.590;2022-10-12T11:15:50;13.03;;;5.63;;
8540;SDS011;4308;51.294;6.590;2022-10-12T11:18:38;13.87;;;6.53;;
8540;SDS011;4308;51.294;6.590;2022-10-12T11:21:10;14.53;;;6.37;;
8540;SDS011;4308;51.294;6.590;2022-10-12T11:23:49;10.83;;;5.77;;
8540;SDS011;4308;51.294;6.590;2022-10-12T11:28:52;12.67;;;6.20;;
8540;SDS011;4308;51.294;6.590;2022-10-12T11:31:25;20.23;;;6.63;;
8540;SDS011;4308;51.294;6.590;2022-10-12T11:33:57;13.47;;;7.07;;
8540;SDS011;4308;51.294;6.590;2022-10-12T11:36:25;14.30;;;7.00;;
8540;SDS011;4308;51.294;6.590;2022-10-12T11:38:56;10.10;;;6.00;;
8540;SDS011;4308;51.294;6.590;2022-10-12T11:44:12;13.87;;;6.40;;
8540;SDS011;4308;51.294;6.590;2022-10-12T11:46:44;15.57;;;7.30;;
8540;SDS011;4308;51.294;6.590;2022-10-12T11:49:18;14.37;;;6.00;;
8540;SDS011;4308;51.294;6.590;2022-10-12T11:51:49;12.50;;;6.40;;
8540;SDS011;4308;51.294;6.590;2022-10-12T11:54:31;14.00;;;5.53;;
8540;SDS011;4308;51.294;6.590;2022-10-12T11:57:07;14.10;;;5.70;;
8540;SDS011;4308;51.294;6.590;2022-10-12T12:02:12;11.37;;;4.80;;
8540;SDS011;4308;51.294;6.590;2022-10-12T12:04:41;12.67;;;4.23;;
8540;SDS011;4308;51.294;6.590;2022-10-12T12:11:18;8.27;;;4.33;;
8540;SDS011;4308;51.294;6.590;2022-10-12T12:13:46;7.13;;;3.33;;
8540;SDS011;4308;51.294;6.590;2022-10-12T12:24:34;9.33;;;2.73;;
8540;SDS011;4308;51.294;6.590;2022-10-12T12:29:51;9.57;;;2.60;;
8540;SDS011;4308;51.294;6.590;2022-10-12T12:32:19;4.97;;;2.60;;
8540;SDS011;4308;51.294;6.590;2022-10-12T12:34:53;12.07;;;2.50;;
8540;SDS011;4308;51.294;6.590;2022-10-12T12:37:27;8.33;;;2.50;;
8540;SDS011;4308;51.294;6.590;2022-10-12T12:39:57;14.03;;;2.77;;
8540;SDS011;4308;51.294;6.590;2022-10-12T12:42:26;7.10;;;2.50;;
8540;SDS011;4308;51.294;6.590;2022-10-12T12:44:54;6.10;;;2.40;;
8540;SDS011;4308;51.294;6.590;2022-10-12T12:47:37;7.13;;;2.67;;
8540;SDS011;4308;51.294;6.590;2022-10-12T12:50:31;7.77;;;2.80;;
8540;SDS011;4308;51.294;6.590;2022-10-12T12:53:04;7.40;;;2.90;;
8540;SDS011;4308;51.294;6.590;2022-10-12T12:55:35;10.07;;;2.90;;
8540;SDS011;4308;51.294;6.590;2022-10-12T13:08:36;11.90;;;3.90;;
8540;SDS011;4308;51.294;6.590;2022-10-12T13:13:58;5.83;;;3.20;;
8540;SDS011;4308;51.294;6.590;2022-10-12T13:19:27;6.07;;;2.93;;
8540;SDS011;4308;51.294;6.590;2022-10-12T13:22:01;14.90;;;3.67;;
8540;SDS011;4308;51.294;6.590;2022-10-12T13:27:49;9.43;;;4.37;;
8540;SDS011;4308;51.294;6.590;2022-10-12T13:30:12;8.27;;;3.13;;
8540;SDS011;4308;51.294;6.590;2022-10-12T13:38:02;11.63;;;4.23;;
8540;SDS011;4308;51.294;6.590;2022-10-12T13:40:35;13.83;;;3.50;;
8540;SDS011;4308;51.294;6.590;2022-10-12T13:46:03;8.33;;;3.00;;
8540;SDS011;4308;51.294;6.590;2022-10-12T13:48:31;15.67;;;4.70;;
8540;SDS011;4308;51.294;6.590;2022-10-12T13:51:20;10.13;;;3.80;;
8540;SDS011;4308;51.294;6.590;2022-10-12T13:53:49;10.90;;;3.30;;
8540;SDS011;4308;51.294;6.590;2022-10-12T13:56:17;10.70;;;3.67;;
8540;SDS011;4308;51.294;6.590;2022-10-12T13:58:45;12.53;;;3.83;;
8540;SDS011;4308;51.294;6.590;2022-10-12T14:01:13;10.57;;;3.97;;
8540;SDS011;4308;51.294;6.590;2022-10-12T14:03:42;11.57;;;4.20;;
8540;SDS011;4308;51.294;6.590;2022-10-12T14:08:57;11.27;;;4.10;;
8540;SDS011;4308;51.294;6.590;2022-10-12T14:11:25;11.53;;;3.70;;
8540;SDS011;4308;51.294;6.590;2022-10-12T14:13:56;12.13;;;4.60;;
8540;SDS011;4308;51.294;6.590;2022-10-12T14:16:24;10.60;;;3.80;;
8540;SDS011;4308;51.294;6.590;2022-10-12T14:18:52;15.17;;;3.90;;
8540;SDS011;4308;51.294;6.590;2022-10-12T14:21:20;7.80;;;4.47;;
8540;SDS011;4308;51.294;6.590;2022-10-12T14:23:49;8.17;;;3.73;;
8540;SDS011;4308;51.294;6.590;2022-10-12T14:26:21;9.00;;;3.77;;
8540;SDS011;4308;51.294;6.590;2022-10-12T14:28:49;9.03;;;4.70;;
8540;SDS011;4308;51.294;6.590;2022-10-12T14:31:41;11.07;;;3.90;;
8540;SDS011;4308;51.294;6.590;2022-10-12T14:39:35;10.37;;;4.10;;
8540;SDS011;4308;51.294;6.590;2022-10-12T14:42:03;8.50;;;4.70;;
8540;SDS011;4308;51.294;6.590;2022-10-12T14:44:44;12.83;;;4.50;;
8540;SDS011;4308;51.294;6.590;2022-10-12T14:47:24;15.30;;;4.93;;
8540;SDS011;4308;51.294;6.590;2022-10-12T14:49:53;10.00;;;4.93;;
8540;SDS011;4308;51.294;6.590;2022-10-12T14:52:23;9.70;;;4.80;;
8540;SDS011;4308;51.294;6.590;2022-10-12T14:54:52;9.77;;;3.80;;
8540;SDS011;4308;51.294;6.590;2022-10-12T14:57:21;12.07;;;4.60;;
8540;SDS011;4308;51.294;6.590;2022-10-12T14:59:49;11.47;;;4.70;;
8540;SDS011;4308;51.294;6.590;2022-10-12T15:02:18;10.10;;;4.20;;
8540;SDS011;4308;51.294;6.590;2022-10-12T15:04:46;10.60;;;4.23;;
8540;SDS011;4308;51.294;6.590;2022-10-12T15:07:18;9.43;;;3.83;;
8540;SDS011;4308;51.294;6.590;2022-10-12T15:09:46;9.00;;;3.47;;
8540;SDS011;4308;51.294;6.590;2022-10-12T15:12:15;15.33;;;3.70;;
8540;SDS011;4308;51.294;6.590;2022-10-12T15:14:43;11.40;;;4.43;;
8540;SDS011;4308;51.294;6.590;2022-10-12T15:17:11;6.90;;;3.47;;
8540;SDS011;4308;51.294;6.590;2022-10-12T15:19:40;11.60;;;3.93;;
8540;SDS011;4308;51.294;6.590;2022-10-12T15:22:09;7.60;;;3.60;;
8540;SDS011;4308;51.294;6.590;2022-10-12T15:24:40;9.03;;;3.87;;
8540;SDS011;4308;51.294;6.590;2022-10-12T15:27:08;14.20;;;4.30;;
8540;SDS011;4308;51.294;6.590;2022-10-12T15:29:36;10.53;;;3.80;;
8540;SDS011;4308;51.294;6.590;2022-10-12T15:32:04;9.20;;;3.03;;
8540;SDS011;4308;51.294;6.590;2022-10-12T15:34:32;11.43;;;3.57;;
8540;SDS011;4308;51.294;6.590;2022-10-12T15:36:59;15.07;;;3.60;;
8540;SDS011;4308;51.294;6.590;2022-10-12T15:39:33;9.67;;;3.90;;
8540;SDS011;4308;51.294;6.590;2022-10-12T15:42:01;10.87;;;4.07;;
8540;SDS011;4308;51.294;6.590;2022-10-12T15:44:28;10.73;;;3.73;;
8540;SDS011;4308;51.294;6.590;2022-10-12T15:46:56;9.93;;;3.67;;
8540;SDS011;4308;51.294;6.590;2022-10-12T15:49:24;11.97;;;3.67;;
8540;SDS011;4308;51.294;6.590;2022-10-12T15:51:52;10.00;;;3.47;;
8540;SDS011;4308;51.294;6.590;2022-10-12T15:54:20;11.50;;;4.73;;
8540;SDS011;4308;51.294;6.590;2022-10-12T15:56:48;19.70;;;4.80;;
8540;SDS011;4308;51.294;6.590;2022-10-12T15:59:15;13.33;;;5.07;;
8540;SDS011;4308;51.294;6.590;2022-10-12T16:01:43;13.57;;;4.80;;
8540;SDS011;4308;51.294;6.590;2022-10-12T16:04:12;10.57;;;4.70;;
8540;SDS011;4308;51.294;6.590;2022-10-12T16:06:42;11.90;;;6.13;;
8540;SDS011;4308;51.294;6.590;2022-10-12T16:09:10;15.93;;;5.23;;
8540;SDS011;4308;51.294;6.590;2022-10-12T16:11:37;17.53;;;4.73;;
8540;SDS011;4308;51.294;6.590;2022-10-12T16:14:05;12.93;;;5.17;;
8540;SDS011;4308;51.294;6.590;2022-10-12T16:16:32;12.87;;;5.63;;
8540;SDS011;4308;51.294;6.590;2022-10-12T16:19:00;14.00;;;4.63;;
8540;SDS011;4308;51.294;6.590;2022-10-12T16:21:27;13.33;;;4.80;;
8540;SDS011;4308;51.294;6.590;2022-10-12T16:23:55;13.07;;;4.83;;
8540;SDS011;4308;51.294;6.590;2022-10-12T16:26:22;12.77;;;4.83;;
8540;SDS011;4308;51.294;6.590;2022-10-12T16:28:50;10.60;;;4.53;;
8540;SDS011;4308;51.294;6.590;2022-10-12T16:31:17;14.20;;;5.07;;
8540;SDS011;4308;51.294;6.590;2022-10-12T16:33:45;10.20;;;4.63;;
8540;SDS011;4308;51.294;6.590;2022-10-12T16:36:13;14.50;;;5.30;;
8540;SDS011;4308;51.294;6.590;2022-10-12T16:38:42;17.67;;;4.77;;
8540;SDS011;4308;51.294;6.590;2022-10-12T16:41:14;8.87;;;4.40;;
8540;SDS011;4308;51.294;6.590;2022-10-12T16:43:42;15.83;;;6.50;;
8540;SDS011;4308;51.294;6.590;2022-10-12T16:46:10;12.63;;;5.27;;
8540;SDS011;4308;51.294;6.590;2022-10-12T16:48:37;10.80;;;4.50;;
8540;SDS011;4308;51.294;6.590;2022-10-12T16:51:06;13.60;;;5.43;;
8540;SDS011;4308;51.294;6.590;2022-10-12T16:53:33;9.50;;;5.20;;
8540;SDS011;4308;51.294;6.590;2022-10-12T16:56:01;14.93;;;4.90;;
8540;SDS011;4308;51.294;6.590;2022-10-12T16:58:29;13.47;;;4.90;;
8540;SDS011;4308;51.294;6.590;2022-10-12T17:00:57;13.07;;;5.37;;
8540;SDS011;4308;51.294;6.590;2022-10-12T17:03:24;13.67;;;5.73;;